Terminal Aerodrome Forecast
Issued by NWS Riverton, WY

Home | Current Version | Previous Version | Text Only | Print | Product List | Glossary On
Versions: 1 2 3 4 5 6 7 8 9 10 11 12 13 14
000
FTUS45 KRIW 292339
TAFRIW
TAF
KRIW 292339Z 3000/3024 21011KT P6SM SCT110 BKN200
     FM301200 VRB05KT P6SM SCT110 BKN200 WS020/24030KT
     FM301700 24013G21KT P6SM SCT110 BKN200
     FM302100 25015G25KT P6SM VCTS SCT110CB BKN150=

USA.gov is the U.S. government's official web portal to all federal, state and local government web resources and services.